This is the latest recevied weather packets stored in our database for station/object K8BCO. If no packets are shown the sender has not sent any weather packets the latest 10 day(s).
| Time | Temp. | Humidity | Pressure | Rain* | Wind** | Luminosity | Snow |
|---|---|---|---|---|---|---|---|
| 1777323917 | 17.78° C | 53% | 1002.4 hPa | 0 mm | - | 169 W/m² | - |
| 1777323317 | 17.22° C | 56% | 1002.6 hPa | 0 mm | - | 204 W/m² | - |
| 1777322717 | 16.67° C | 57% | 1003 hPa | 0 mm | - | 125 W/m² | - |
| 1777322117 | 17.22° C | 57% | 1003.4 hPa | 0 mm | - | 115 W/m² | - |
| 1777321518 | 17.22° C | 57% | 1003.7 hPa | 0 mm | - | 141 W/m² | - |
| 1777320917 | 17.78° C | 56% | 1004.1 hPa | 0 mm | - | 279 W/m² | - |
| 1777320318 | 17.22° C | 56% | 1004.3 hPa | 0 mm | - | 241 W/m² | - |
| 1777319718 | 17.22° C | 57% | 1004.3 hPa | 0 mm | - | 235 W/m² | - |
| 1777319123 | 17.22° C | 57% | 1004.7 hPa | 0 mm | - | 230 W/m² | - |
| 1777318518 | 17.22° C | 57% | 1005 hPa | 0 mm | - | 294 W/m² | - |
| 1777317919 | 16.67° C | 58% | 1005.4 hPa | 0 mm | - | 327 W/m² | - |
| 1777317316 | 17.22° C | 58% | 1005.4 hPa | 0 mm | - | 297 W/m² | - |
| 1777316716 | 17.22° C | 58% | 1005.7 hPa | 0 mm | - | 323 W/m² | - |
| 1777316116 | 17.78° C | 57% | 1005.8 hPa | 0 mm | - | 371 W/m² | - |
| 1777315517 | 18.89° C | 55% | 1006.1 hPa | 0 mm | - | 645 W/m² | - |
| 1777314916 | 18.33° C | 57% | 1006.3 hPa | 0 mm | - | 621 W/m² | - |
| 1777314316 | 17.78° C | 58% | 1006.5 hPa | 0 mm | - | 614 W/m² | - |
| 1777313717 | 17.22° C | 60% | 1006.8 hPa | 0 mm | - | 500 W/m² | - |
| 1777313117 | 17.22° C | 59% | 1007.1 hPa | 0 mm | - | 428 W/m² | - |
| 1777312517 | 17.78° C | 58% | 1007.5 hPa | 0 mm | - | 464 W/m² | - |
| 1777311917 | 17.22° C | 57% | 1007.6 hPa | 0 mm | - | 816 W/m² | - |
| 1777311317 | 17.22° C | 58% | 1007.7 hPa | 0 mm | - | 734 W/m² | - |
| 1777310718 | 17.22° C | 59% | 1008 hPa | 0 mm | - | 560 W/m² | - |
| 1777310118 | 17.78° C | 57% | 1008.2 hPa | 0 mm | - | 467 W/m² | - |
| 1777309518 | 17.78° C | 56% | 1008.6 hPa | 0 mm | - | 577 W/m² | - |
* Rain latest hour (hover to see other rain measurements)
** Current wind speed in m/s (hover to see current wind gust speed)